createdAt,value
2018-03-30T00:00:43.183Z,97.97
2018-03-30T00:01:43.579Z,97.59
2018-03-30T00:02:43.204Z,98.06
2018-03-30T00:03:43.471Z,98.54
2018-03-30T00:04:43.432Z,98.72
2018-03-30T00:05:43.325Z,98.72
2018-03-30T00:06:43.438Z,98.72
2018-03-30T00:07:43.346Z,98.91
2018-03-30T00:08:42.964Z,99.29
2018-03-30T00:09:43.355Z,99.01
2018-03-30T00:10:42.949Z,99.48
2018-03-30T00:11:42.960Z,99.99
2018-03-30T00:12:43.172Z,99.01
2018-03-30T00:13:43.151Z,99.29
2018-03-30T00:14:43.343Z,99.39
2018-03-30T00:15:42.829Z,99.34
2018-03-30T00:16:42.852Z,99.86
2018-03-30T00:17:42.806Z,99.86
2018-03-30T00:18:43.159Z,99.99
2018-03-30T00:19:43.068Z,99.96
2018-03-30T00:20:42.738Z,99.99
2018-03-30T00:21:43.123Z,99.99
2018-03-30T00:22:42.754Z,99.99
2018-03-30T00:23:43.040Z,99.99
2018-03-30T00:24:42.642Z,99.99
2018-03-30T00:25:42.976Z,99.99
2018-03-30T00:26:42.892Z,99.99
2018-03-30T00:27:42.939Z,99.99
2018-03-30T00:28:42.859Z,99.99
2018-03-30T00:29:42.918Z,99.99
2018-03-30T00:30:42.878Z,99.99
2018-03-30T00:31:42.588Z,99.99
2018-03-30T00:32:42.518Z,99.99
2018-03-30T00:33:42.770Z,99.99
2018-03-30T00:34:42.757Z,99.99
2018-03-30T00:35:42.828Z,99.99
2018-03-30T00:36:42.713Z,99.99
2018-03-30T00:37:42.676Z,99.99
2018-03-30T00:38:42.648Z,99.99
2018-03-30T00:39:42.716Z,99.99
2018-03-30T00:40:42.338Z,99.99
2018-03-30T00:41:42.381Z,99.99
2018-03-30T00:42:42.534Z,99.99
2018-03-30T00:43:42.538Z,99.99
2018-03-30T00:44:42.272Z,99.99
2018-03-30T00:45:42.195Z,99.99
2018-03-30T00:46:42.205Z,99.99
2018-03-30T00:47:42.212Z,99.99
2018-03-30T00:48:42.224Z,99.99
2018-03-30T00:49:42.083Z,99.99
2018-03-30T00:50:42.353Z,99.99
2018-03-30T00:51:42.462Z,99.99
2018-03-30T00:52:42.310Z,99.99
2018-03-30T00:53:42.336Z,99.99
2018-03-30T00:54:41.993Z,99.99
2018-03-30T00:55:42.300Z,99.99
2018-03-30T00:56:42.334Z,99.99
2018-03-30T00:57:42.221Z,99.99
2018-03-30T00:58:42.249Z,99.99
2018-03-30T00:59:42.192Z,99.99
2018-03-30T01:00:42.271Z,99.99
2018-03-30T01:01:42.165Z,99.99
2018-03-30T01:02:41.924Z,99.99
2018-03-30T01:03:41.933Z,99.99
2018-03-30T01:04:41.876Z,99.99
2018-03-30T01:05:41.764Z,99.99
2018-03-30T01:06:42.086Z,99.99
2018-03-30T01:07:42.065Z,99.99
2018-03-30T01:08:41.939Z,99.99
2018-03-30T01:09:41.634Z,99.99
2018-03-30T01:10:41.885Z,99.99
2018-03-30T01:11:41.590Z,99.99
2018-03-30T01:12:41.835Z,99.99
2018-03-30T01:13:41.822Z,99.99
2018-03-30T01:14:41.796Z,99.99
2018-03-30T01:15:41.770Z,99.99
2018-03-30T01:16:41.485Z,99.99
2018-03-30T01:17:41.466Z,99.99
2018-03-30T01:18:41.705Z,99.99
2018-03-30T01:19:41.417Z,99.99
2018-03-30T01:20:41.673Z,99.99
2018-03-30T01:21:41.636Z,99.99
2018-03-30T01:22:41.616Z,99.99
2018-03-30T01:23:41.601Z,99.99
2018-03-30T01:24:41.590Z,99.99
2018-03-30T01:25:41.288Z,99.99
2018-03-30T01:26:41.268Z,99.99
2018-03-30T01:27:41.510Z,99.99
2018-03-30T01:28:41.490Z,99.99
2018-03-30T01:29:41.474Z,99.99
2018-03-30T01:30:41.182Z,99.99
2018-03-30T01:31:41.428Z,99.99
2018-03-30T01:32:41.405Z,99.99
2018-03-30T01:33:41.115Z,99.99
2018-03-30T01:34:41.095Z,99.99
2018-03-30T01:35:41.074Z,99.99
2018-03-30T01:36:41.320Z,99.99
2018-03-30T01:37:41.307Z,99.99
2018-03-30T01:38:41.009Z,99.99
2018-03-30T01:39:41.093Z,99.99
2018-03-30T01:40:41.428Z,99.99
2018-03-30T01:41:41.366Z,99.99
2018-03-30T01:42:41.266Z,99.99
2018-03-30T01:43:41.222Z,99.99
2018-03-30T01:44:40.964Z,99.99
2018-03-30T01:45:40.938Z,99.99
2018-03-30T01:46:41.383Z,99.99
2018-03-30T01:47:41.095Z,99.99
2018-03-30T01:48:41.120Z,99.99
2018-03-30T01:49:40.889Z,99.99
2018-03-30T01:50:40.901Z,99.99
2018-03-30T01:51:41.068Z,99.99
2018-03-30T01:52:41.095Z,99.99
2018-03-30T01:53:41.104Z,99.99
2018-03-30T01:54:40.801Z,99.99
2018-03-30T01:55:40.819Z,99.99
2018-03-30T01:56:41.043Z,99.99
2018-03-30T01:57:41.018Z,99.99
2018-03-30T01:58:40.927Z,99.99
2018-03-30T01:59:40.960Z,99.99
2018-03-30T02:00:40.663Z,99.99
2018-03-30T02:01:40.604Z,99.99
2018-03-30T02:02:40.931Z,99.99
2018-03-30T02:03:40.834Z,99.99
2018-03-30T02:04:40.753Z,99.99
2018-03-30T02:05:40.936Z,99.99
2018-03-30T02:06:41.121Z,99.99
2018-03-30T02:07:40.515Z,99.99
2018-03-30T02:08:40.762Z,99.99
2018-03-30T02:09:40.409Z,99.99
2018-03-30T02:10:40.418Z,99.99
2018-03-30T02:11:40.606Z,99.99
2018-03-30T02:12:40.720Z,99.99
2018-03-30T02:13:40.349Z,99.99
2018-03-30T02:14:40.320Z,99.99
2018-03-30T02:15:40.322Z,99.99
2018-03-30T02:16:40.596Z,99.99
2018-03-30T02:17:40.472Z,99.99
2018-03-30T02:18:40.564Z,99.99
2018-03-30T02:19:40.428Z,99.99
2018-03-30T02:20:40.426Z,99.99
2018-03-30T02:21:40.394Z,99.99
2018-03-30T02:22:40.086Z,99.99
2018-03-30T02:23:40.345Z,99.99
2018-03-30T02:24:40.440Z,99.99
2018-03-30T02:25:40.325Z,99.99
2018-03-30T02:26:40.069Z,99.99
2018-03-30T02:27:40.315Z,99.99
2018-03-30T02:28:40.273Z,99.99
2018-03-30T02:29:40.274Z,99.99
2018-03-30T02:30:40.259Z,99.99
2018-03-30T02:31:39.906Z,99.99
2018-03-30T02:32:40.193Z,99.99
2018-03-30T02:33:40.256Z,99.99
2018-03-30T02:34:39.857Z,99.99
2018-03-30T02:35:40.101Z,99.99
2018-03-30T02:36:40.127Z,99.99
2018-03-30T02:37:39.790Z,99.99
2018-03-30T02:38:40.056Z,99.99
2018-03-30T02:39:40.035Z,99.99
2018-03-30T02:40:40.021Z,99.99
2018-03-30T02:41:39.951Z,99.99
2018-03-30T02:42:39.982Z,99.99
2018-03-30T02:43:39.686Z,99.99
2018-03-30T02:44:39.654Z,99.99
2018-03-30T02:45:39.915Z,99.99
2018-03-30T02:46:39.877Z,99.99
2018-03-30T02:47:39.853Z,99.99
2018-03-30T02:48:39.826Z,99.99
2018-03-30T02:49:39.866Z,99.99
2018-03-30T02:50:39.767Z,99.99
2018-03-30T02:51:39.824Z,99.99
2018-03-30T02:52:39.537Z,99.99
2018-03-30T02:53:39.502Z,99.99
2018-03-30T02:54:39.454Z,99.99
2018-03-30T02:55:39.734Z,99.99
2018-03-30T02:56:39.760Z,99.99
2018-03-30T02:57:39.411Z,99.99
2018-03-30T02:58:39.410Z,99.99
2018-03-30T02:59:39.640Z,99.99
2018-03-30T03:00:39.611Z,99.99
2018-03-30T03:01:39.645Z,99.99
2018-03-30T03:02:39.604Z,99.99
2018-03-30T03:03:39.559Z,99.99
2018-03-30T03:04:39.534Z,99.99
2018-03-30T03:05:39.519Z,99.99
2018-03-30T03:06:39.465Z,99.99
2018-03-30T03:07:39.225Z,99.99
2018-03-30T03:08:39.494Z,99.99
2018-03-30T03:09:39.408Z,99.99
2018-03-30T03:10:39.151Z,99.99
2018-03-30T03:11:39.383Z,99.99
2018-03-30T03:12:39.071Z,99.99
2018-03-30T03:13:39.084Z,99.99
2018-03-30T03:14:39.051Z,99.99
2018-03-30T03:15:39.297Z,99.99
2018-03-30T03:16:38.978Z,99.99
2018-03-30T03:17:39.254Z,99.99
2018-03-30T03:18:38.936Z,99.99
2018-03-30T03:19:38.909Z,99.99
2018-03-30T03:20:39.169Z,99.99
2018-03-30T03:21:39.135Z,99.99
2018-03-30T03:22:38.912Z,99.99
2018-03-30T03:23:39.194Z,99.99
2018-03-30T03:24:39.102Z,99.99
2018-03-30T03:25:39.088Z,99.99
2018-03-30T03:26:38.777Z,99.99
2018-03-30T03:27:38.790Z,99.99
2018-03-30T03:28:39.048Z,99.99
2018-03-30T03:29:38.979Z,99.99
2018-03-30T03:30:38.959Z,99.99
2018-03-30T03:31:39.016Z,99.99
2018-03-30T03:32:38.651Z,99.99
2018-03-30T03:33:39.002Z,99.99
2018-03-30T03:34:38.909Z,99.99
2018-03-30T03:35:38.885Z,99.99
2018-03-30T03:36:38.583Z,99.99
2018-03-30T03:37:38.850Z,99.99
2018-03-30T03:38:38.809Z,99.99
2018-03-30T03:39:38.787Z,99.99
2018-03-30T03:40:38.768Z,99.99
2018-03-30T03:41:38.765Z,99.99
2018-03-30T03:42:38.756Z,99.99
2018-03-30T03:43:38.420Z,99.99
2018-03-30T03:44:38.706Z,99.99
2018-03-30T03:45:38.394Z,99.99
2018-03-30T03:46:38.626Z,99.99
2018-03-30T03:47:38.376Z,99.99
2018-03-30T03:48:38.322Z,99.99
2018-03-30T03:49:38.590Z,99.99
2018-03-30T03:50:38.573Z,99.99
2018-03-30T03:51:38.613Z,99.99
2018-03-30T03:52:38.504Z,99.99
2018-03-30T03:53:38.505Z,99.99
2018-03-30T03:54:38.519Z,99.99
2018-03-30T03:55:38.430Z,99.99
2018-03-30T03:56:38.489Z,99.99
2018-03-30T03:57:38.439Z,99.99
2018-03-30T03:58:38.100Z,99.99
2018-03-30T03:59:38.378Z,99.99
2018-03-30T04:00:38.378Z,99.99
2018-03-30T04:01:38.325Z,99.99
2018-03-30T04:02:38.324Z,99.99
2018-03-30T04:03:38.256Z,99.99
2018-03-30T04:04:37.992Z,99.99
2018-03-30T04:05:37.958Z,99.99
2018-03-30T04:06:38.244Z,99.99
2018-03-30T04:07:38.288Z,99.99
2018-03-30T04:08:38.190Z,99.99
2018-03-30T04:09:38.164Z,99.99
2018-03-30T04:10:37.827Z,99.99
2018-03-30T04:11:37.874Z,99.99
2018-03-30T04:12:38.159Z,99.99
2018-03-30T04:13:38.065Z,99.99
2018-03-30T04:14:38.060Z,99.99
2018-03-30T04:15:37.772Z,99.99
2018-03-30T04:16:37.773Z,99.99
2018-03-30T04:17:38.035Z,99.99
2018-03-30T04:18:37.988Z,99.99
2018-03-30T04:19:37.682Z,99.99
2018-03-30T04:20:37.935Z,99.99
2018-03-30T04:21:37.916Z,99.99
2018-03-30T04:22:37.874Z,99.99
2018-03-30T04:23:37.879Z,99.99
2018-03-30T04:24:37.867Z,99.99
2018-03-30T04:25:37.592Z,99.99
2018-03-30T04:26:37.586Z,99.99
2018-03-30T04:27:37.538Z,99.99
2018-03-30T04:28:37.760Z,99.99
2018-03-30T04:29:37.775Z,99.99
2018-03-30T04:30:37.706Z,99.99
2018-03-30T04:31:37.391Z,99.99
2018-03-30T04:32:37.374Z,99.99
2018-03-30T04:33:37.350Z,99.99
2018-03-30T04:34:37.331Z,99.99
2018-03-30T04:35:37.601Z,99.99
2018-03-30T04:36:37.288Z,99.99
2018-03-30T04:37:37.550Z,99.99
2018-03-30T04:38:37.511Z,99.99
2018-03-30T04:39:37.224Z,99.99
2018-03-30T04:40:37.209Z,99.99
2018-03-30T04:41:37.449Z,99.99
2018-03-30T04:42:37.160Z,99.99
2018-03-30T04:43:37.408Z,99.99
2018-03-30T04:44:37.127Z,99.99
2018-03-30T04:45:37.110Z,99.99
2018-03-30T04:46:37.080Z,99.99
2018-03-30T04:47:37.338Z,99.99
2018-03-30T04:48:37.043Z,99.99
2018-03-30T04:49:37.284Z,99.99
2018-03-30T04:50:36.998Z,99.99
2018-03-30T04:51:37.244Z,99.99
2018-03-30T04:52:37.234Z,99.99
2018-03-30T04:53:37.206Z,99.99
2018-03-30T04:54:37.185Z,99.99
2018-03-30T04:55:37.159Z,99.99
2018-03-30T04:56:36.879Z,99.99
2018-03-30T04:57:36.854Z,99.99
2018-03-30T04:58:36.845Z,99.99
2018-03-30T04:59:37.087Z,99.99
2018-03-30T05:00:37.054Z,99.99
2018-03-30T05:01:37.039Z,99.99
2018-03-30T05:02:36.753Z,99.99
2018-03-30T05:03:36.998Z,99.99
2018-03-30T05:04:36.708Z,99.99
2018-03-30T05:05:36.688Z,99.99
2018-03-30T05:06:36.669Z,99.99
2018-03-30T05:07:36.643Z,99.99
2018-03-30T05:08:36.902Z,99.99
2018-03-30T05:09:36.874Z,99.99
2018-03-30T05:10:36.850Z,99.99
2018-03-30T05:11:36.834Z,99.99
2018-03-30T05:12:36.806Z,99.99
2018-03-30T05:13:36.532Z,99.99
2018-03-30T05:14:36.784Z,99.99
2018-03-30T05:15:36.746Z,99.99
2018-03-30T05:16:36.774Z,99.99
2018-03-30T05:17:36.706Z,99.99
2018-03-30T05:18:36.427Z,99.99
2018-03-30T05:19:36.731Z,99.99
2018-03-30T05:20:36.649Z,99.99
2018-03-30T05:21:36.622Z,99.99
2018-03-30T05:22:36.336Z,99.99
2018-03-30T05:23:36.318Z,99.99
2018-03-30T05:24:36.295Z,99.99
2018-03-30T05:25:36.548Z,99.99
2018-03-30T05:26:36.524Z,99.99
2018-03-30T05:27:36.510Z,99.99
2018-03-30T05:28:36.489Z,99.99
2018-03-30T05:29:36.199Z,99.99
2018-03-30T05:30:36.457Z,99.99
2018-03-30T05:31:36.150Z,99.99
2018-03-30T05:32:36.408Z,99.99
2018-03-30T05:33:36.109Z,99.99
2018-03-30T05:34:36.092Z,99.99
2018-03-30T05:35:36.336Z,99.99
2018-03-30T05:36:36.053Z,99.99
2018-03-30T05:37:36.300Z,99.99
2018-03-30T05:38:36.273Z,99.99
2018-03-30T05:39:36.258Z,99.99
2018-03-30T05:40:36.240Z,99.99
2018-03-30T05:41:35.948Z,99.99
2018-03-30T05:42:36.192Z,99.99
2018-03-30T05:43:36.167Z,99.99
2018-03-30T05:44:36.150Z,99.99
2018-03-30T05:45:36.131Z,99.99
2018-03-30T05:46:36.109Z,99.99
2018-03-30T05:47:36.088Z,99.99
2018-03-30T05:48:36.078Z,99.99
2018-03-30T05:49:36.061Z,99.99
2018-03-30T05:50:35.771Z,99.99
2018-03-30T05:51:36.011Z,99.99
2018-03-30T05:52:35.722Z,99.99
2018-03-30T05:53:35.972Z,99.99
2018-03-30T05:54:35.684Z,99.99
2018-03-30T05:55:35.931Z,99.99
2018-03-30T05:56:35.648Z,99.99
2018-03-30T05:57:35.887Z,99.99
2018-03-30T05:58:35.876Z,99.99
2018-03-30T05:59:35.853Z,99.99
2018-03-30T06:00:35.844Z,99.99
2018-03-30T06:01:35.808Z,99.99
2018-03-30T06:02:35.522Z,99.99
2018-03-30T06:03:35.500Z,99.99
2018-03-30T06:04:35.746Z,99.99
2018-03-30T06:05:35.461Z,99.99
2018-03-30T06:06:35.440Z,99.99
2018-03-30T06:07:35.893Z,99.99
2018-03-30T06:08:35.401Z,99.99
2018-03-30T06:09:35.396Z,99.99
2018-03-30T06:10:35.358Z,99.99
2018-03-30T06:11:35.604Z,99.99
2018-03-30T06:12:35.322Z,99.99
2018-03-30T06:13:35.299Z,99.99
2018-03-30T06:14:35.279Z,99.99
2018-03-30T06:15:35.262Z,99.99
2018-03-30T06:16:35.243Z,99.99
2018-03-30T06:17:35.485Z,99.99
2018-03-30T06:18:35.464Z,99.99
2018-03-30T06:19:35.452Z,99.99
2018-03-30T06:20:35.183Z,99.99
2018-03-30T06:21:35.147Z,99.99
2018-03-30T06:22:35.386Z,99.99
2018-03-30T06:23:35.366Z,99.99
2018-03-30T06:24:35.346Z,99.99
2018-03-30T06:25:35.063Z,99.99
2018-03-30T06:26:35.045Z,99.99
2018-03-30T06:27:35.289Z,99.99
2018-03-30T06:28:35.001Z,99.99
2018-03-30T06:29:34.978Z,99.99
2018-03-30T06:30:34.962Z,99.99
2018-03-30T06:31:35.205Z,99.99
2018-03-30T06:32:35.184Z,99.99
2018-03-30T06:33:35.172Z,99.99
2018-03-30T06:34:35.157Z,99.99
2018-03-30T06:35:35.131Z,99.99
2018-03-30T06:36:35.113Z,99.99
2018-03-30T06:37:35.088Z,99.99
2018-03-30T06:38:35.071Z,99.99
2018-03-30T06:39:35.055Z,99.99
2018-03-30T06:40:34.764Z,99.99
2018-03-30T06:41:35.007Z,99.99
2018-03-30T06:42:35.000Z,99.99
2018-03-30T06:43:34.979Z,99.99
2018-03-30T06:44:34.687Z,99.99
2018-03-30T06:45:34.933Z,99.99
2018-03-30T06:46:34.654Z,99.99
2018-03-30T06:47:34.906Z,99.99
2018-03-30T06:48:34.879Z,99.99
2018-03-30T06:49:34.591Z,99.99
2018-03-30T06:50:34.838Z,99.99
2018-03-30T06:51:34.560Z,99.99
2018-03-30T06:52:34.534Z,99.99
2018-03-30T06:53:34.778Z,99.99
2018-03-30T06:54:34.498Z,99.99
2018-03-30T06:55:34.745Z,99.99
2018-03-30T06:56:34.457Z,99.99
2018-03-30T06:57:34.713Z,99.99
2018-03-30T06:58:34.684Z,99.99
2018-03-30T06:59:34.725Z,99.99
2018-03-30T07:00:34.383Z,99.99
2018-03-30T07:01:34.638Z,99.99
2018-03-30T07:02:34.349Z,99.99
2018-03-30T07:03:34.336Z,99.99
2018-03-30T07:04:34.619Z,99.99
2018-03-30T07:05:34.562Z,99.99
2018-03-30T07:06:34.272Z,99.99
2018-03-30T07:07:34.252Z,99.99
2018-03-30T07:08:34.232Z,99.99
2018-03-30T07:09:34.480Z,99.99
2018-03-30T07:10:34.194Z,99.99
2018-03-30T07:11:34.177Z,99.99
2018-03-30T07:12:34.432Z,99.99
2018-03-30T07:13:34.150Z,99.99
2018-03-30T07:14:34.393Z,99.99
2018-03-30T07:15:34.109Z,99.99
2018-03-30T07:16:34.363Z,99.99
2018-03-30T07:17:34.109Z,99.99
2018-03-30T07:18:34.314Z,99.99
2018-03-30T07:19:34.035Z,99.99
2018-03-30T07:20:34.014Z,99.99
2018-03-30T07:21:34.266Z,99.99
2018-03-30T07:22:34.036Z,99.99
2018-03-30T07:23:34.237Z,99.99
2018-03-30T07:24:33.949Z,99.99
2018-03-30T07:25:34.192Z,99.99
2018-03-30T07:26:34.180Z,99.99
2018-03-30T07:27:33.889Z,99.99
2018-03-30T07:28:34.206Z,99.99
2018-03-30T07:29:34.132Z,99.99
2018-03-30T07:30:34.102Z,99.99
2018-03-30T07:31:34.086Z,99.99
2018-03-30T07:32:33.804Z,99.99
2018-03-30T07:33:33.786Z,99.99
2018-03-30T07:34:34.031Z,99.99
2018-03-30T07:35:33.754Z,99.99
2018-03-30T07:36:33.997Z,99.99
2018-03-30T07:37:33.727Z,99.99
2018-03-30T07:38:33.964Z,99.99
2018-03-30T07:39:33.953Z,99.99
2018-03-30T07:40:33.670Z,99.99
2018-03-30T07:41:33.917Z,99.99
2018-03-30T07:42:33.905Z,99.99
2018-03-30T07:43:33.884Z,99.99
2018-03-30T07:44:33.870Z,99.99
2018-03-30T07:45:33.587Z,99.99
2018-03-30T07:46:33.845Z,99.99
2018-03-30T07:47:33.816Z,99.99
2018-03-30T07:48:33.541Z,99.99
2018-03-30T07:49:33.787Z,99.99
2018-03-30T07:50:33.784Z,99.99
2018-03-30T07:51:33.492Z,99.99
2018-03-30T07:52:33.745Z,99.99
2018-03-30T07:53:33.721Z,99.99
2018-03-30T07:54:33.701Z,99.99
2018-03-30T07:55:33.422Z,99.99
2018-03-30T07:56:33.670Z,99.99
2018-03-30T07:57:33.390Z,99.99
2018-03-30T07:58:33.648Z,99.99
2018-03-30T07:59:33.624Z,99.99
2018-03-30T08:00:33.346Z,99.99
2018-03-30T08:01:33.591Z,99.99
2018-03-30T08:02:33.317Z,99.99
2018-03-30T08:03:33.619Z,99.99
2018-03-30T08:04:33.283Z,99.99
2018-03-30T08:05:33.540Z,99.99
2018-03-30T08:06:33.520Z,99.99
2018-03-30T08:07:33.704Z,99.99
2018-03-30T08:08:33.217Z,99.99
2018-03-30T08:09:33.202Z,99.99
2018-03-30T08:10:33.190Z,99.99
2018-03-30T08:11:33.180Z,99.99
2018-03-30T08:12:33.429Z,99.99
2018-03-30T08:13:33.413Z,99.99
2018-03-30T08:14:33.389Z,99.99
2018-03-30T08:15:33.111Z,99.99
2018-03-30T08:16:33.094Z,99.99
2018-03-30T08:17:33.078Z,99.99
2018-03-30T08:18:33.339Z,99.99
2018-03-30T08:19:33.317Z,99.99
2018-03-30T08:20:33.033Z,99.99
2018-03-30T08:21:33.019Z,99.99
2018-03-30T08:22:33.347Z,99.99
2018-03-30T08:23:33.268Z,99.99
2018-03-30T08:24:33.252Z,99.99
2018-03-30T08:25:32.959Z,99.99
2018-03-30T08:26:32.945Z,99.99
2018-03-30T08:27:33.199Z,99.99
2018-03-30T08:28:33.187Z,99.99
2018-03-30T08:29:32.904Z,99.99
2018-03-30T08:30:33.155Z,99.99
2018-03-30T08:31:32.894Z,99.99
2018-03-30T08:32:32.862Z,99.99
2018-03-30T08:33:33.123Z,99.99
2018-03-30T08:34:32.836Z,99.99
2018-03-30T08:35:32.864Z,99.99
2018-03-30T08:36:33.084Z,99.99
2018-03-30T08:37:33.071Z,99.99
2018-03-30T08:38:33.057Z,99.99
2018-03-30T08:39:32.776Z,99.99
2018-03-30T08:40:33.026Z,99.91
2018-03-30T08:41:33.045Z,94.59
2018-03-30T08:42:33.066Z,91.57
2018-03-30T08:43:32.730Z,90.6
2018-03-30T08:44:32.982Z,85.84
2018-03-30T08:45:32.975Z,75.88
2018-03-30T08:46:33.095Z,74.02
2018-03-30T08:47:32.693Z,74.17
2018-03-30T08:48:32.743Z,73.5
2018-03-30T08:49:32.941Z,75.29
2018-03-30T08:50:32.748Z,75
2018-03-30T08:51:32.929Z,75.12
2018-03-30T08:52:32.927Z,76.9
2018-03-30T08:53:32.918Z,78.15
2018-03-30T08:54:32.649Z,78.05
2018-03-30T08:55:32.900Z,77.95
2018-03-30T08:56:32.900Z,76.39
2018-03-30T08:57:32.621Z,75.33
2018-03-30T08:58:32.962Z,77.44
2018-03-30T08:59:32.921Z,78.78
2018-03-30T09:00:32.644Z,76.86
2018-03-30T09:01:32.652Z,79.7
2018-03-30T09:02:32.882Z,78.49
2018-03-30T09:03:32.581Z,78.17
2018-03-30T09:04:32.637Z,77.11
2018-03-30T09:05:32.837Z,79.75
2018-03-30T09:06:32.923Z,78.99
2018-03-30T09:07:32.833Z,80.76
2018-03-30T09:08:32.824Z,79.8
2018-03-30T09:09:32.820Z,83.11
2018-03-30T09:10:32.805Z,81.38
2018-03-30T09:11:32.797Z,80.04
2018-03-30T09:12:32.792Z,79.08
2018-03-30T09:13:32.519Z,79.14
2018-03-30T09:14:32.785Z,78.63
2018-03-30T09:15:32.511Z,79
2018-03-30T09:16:32.496Z,78.91
2018-03-30T09:17:32.760Z,79.25
2018-03-30T09:18:32.487Z,79.73
2018-03-30T09:19:32.771Z,80.3
2018-03-30T09:20:32.520Z,80.69
2018-03-30T09:21:32.744Z,79.44
2018-03-30T09:22:32.802Z,79.35
2018-03-30T09:23:32.729Z,78.11
2018-03-30T09:24:32.699Z,79.44
2018-03-30T09:25:32.440Z,79.29
2018-03-30T09:26:32.417Z,78.24
2018-03-30T09:27:32.433Z,77.42
2018-03-30T09:28:32.717Z,77.13
2018-03-30T09:29:32.659Z,77.8
2018-03-30T09:30:32.385Z,78.47
2018-03-30T09:31:32.427Z,76.84
2018-03-30T09:32:32.386Z,77.38
2018-03-30T09:33:32.682Z,78.09
2018-03-30T09:34:32.356Z,77.51
2018-03-30T09:35:32.650Z,77.26
2018-03-30T09:36:32.339Z,76.31
2018-03-30T09:37:32.600Z,75.54
2018-03-30T09:38:32.578Z,74.05
2018-03-30T09:39:32.315Z,74.01
2018-03-30T09:40:32.579Z,73.97
2018-03-30T09:41:32.560Z,77.65
2018-03-30T09:42:32.291Z,74.05
2018-03-30T09:43:32.831Z,73.24
2018-03-30T09:44:32.275Z,74.3
2018-03-30T09:45:32.256Z,74.74
2018-03-30T09:46:32.514Z,75.02
2018-03-30T09:47:32.507Z,73.4
2018-03-30T09:48:32.500Z,73.79
2018-03-30T09:49:32.490Z,75.27
2018-03-30T09:50:32.477Z,75.66
2018-03-30T09:51:32.208Z,77.76
2018-03-30T09:52:32.458Z,78.43
2018-03-30T09:53:32.485Z,76.23
2018-03-30T09:54:32.452Z,75.37
2018-03-30T09:55:32.457Z,75.22
2018-03-30T09:56:32.161Z,75.31
2018-03-30T09:57:32.213Z,75.22
2018-03-30T09:58:32.450Z,74.68
2018-03-30T09:59:32.437Z,73.72
2018-03-30T10:00:32.396Z,73.24
2018-03-30T10:01:32.588Z,73.05
2018-03-30T10:02:32.385Z,72.48
2018-03-30T10:03:32.376Z,72.96
2018-03-30T10:04:32.096Z,73.11
2018-03-30T10:05:32.092Z,74.16
2018-03-30T10:06:32.414Z,75.41
2018-03-30T10:07:32.276Z,73.82
2018-03-30T10:08:32.418Z,70.85
2018-03-30T10:09:32.326Z,71.33
2018-03-30T10:10:32.314Z,72
2018-03-30T10:11:32.314Z,69.93
2018-03-30T10:12:32.034Z,70.76
2018-03-30T10:13:32.389Z,71.42
2018-03-30T10:14:32.280Z,71.14
2018-03-30T10:15:32.007Z,71.77
2018-03-30T10:16:32.267Z,73.02
2018-03-30T10:17:32.263Z,73.21
2018-03-30T10:18:31.983Z,72.92
2018-03-30T10:19:32.261Z,72
2018-03-30T10:20:32.007Z,72.19
2018-03-30T10:21:32.225Z,70.76
2018-03-30T10:22:31.952Z,69.6
2018-03-30T10:23:31.941Z,70.18
2018-03-30T10:24:31.951Z,71.14
2018-03-30T10:25:31.927Z,70.76
2018-03-30T10:26:32.212Z,69.42
2018-03-30T10:27:31.910Z,70.21
2018-03-30T10:28:32.230Z,66.96
2018-03-30T10:29:31.895Z,67.54
2018-03-30T10:30:32.283Z,67.66
2018-03-30T10:31:32.016Z,65.84
2018-03-30T10:32:32.139Z,65.08
2018-03-30T10:33:32.165Z,67.09
2018-03-30T10:34:31.856Z,69.13
2018-03-30T10:35:32.142Z,64.95
2018-03-30T10:36:31.845Z,63.96
2018-03-30T10:37:31.865Z,63.57
2018-03-30T10:38:31.836Z,62.96
2018-03-30T10:39:32.114Z,63.32
2018-03-30T10:40:32.137Z,65.52
2018-03-30T10:41:31.815Z,66
2018-03-30T10:42:32.074Z,66.51
2018-03-30T10:43:32.272Z,65.42
2018-03-30T10:44:31.799Z,68.3
2018-03-30T10:45:32.055Z,66.19
2018-03-30T10:46:32.051Z,67.18
2018-03-30T10:47:32.088Z,67.47
2018-03-30T10:48:31.774Z,65.36
2018-03-30T10:49:31.766Z,65.65
2018-03-30T10:50:32.029Z,65.46
2018-03-30T10:51:31.759Z,64.02
2018-03-30T10:52:32.069Z,65.75
2018-03-30T10:53:32.014Z,66.03
2018-03-30T10:54:31.774Z,65.46
2018-03-30T10:55:31.783Z,63.03
2018-03-30T10:56:32.036Z,62.93
2018-03-30T10:57:31.989Z,63.64
2018-03-30T10:58:31.988Z,63.45
2018-03-30T10:59:31.982Z,64.76
2018-03-30T11:00:31.971Z,63.92
2018-03-30T11:01:31.700Z,65.05
2018-03-30T11:02:31.704Z,63.89
2018-03-30T11:03:31.958Z,64.66
2018-03-30T11:04:31.686Z,63.99
2018-03-30T11:05:31.689Z,63.8
2018-03-30T11:06:32.100Z,62.1
2018-03-30T11:07:31.669Z,62.46
2018-03-30T11:08:32.063Z,63.89
2018-03-30T11:09:31.693Z,62.93
2018-03-30T11:10:31.838Z,63.48
2018-03-30T11:11:31.691Z,64.82
2018-03-30T11:12:31.650Z,63.7
2018-03-30T11:13:31.963Z,64.43
2018-03-30T11:14:31.639Z,64.92
2018-03-30T11:15:31.896Z,65.33
2018-03-30T11:16:31.931Z,63.89
2018-03-30T11:17:31.672Z,63.22
2018-03-30T11:18:31.889Z,63.96
2018-03-30T11:19:31.872Z,64.82
2018-03-30T11:20:31.610Z,65.97
2018-03-30T11:21:31.861Z,66.74
2018-03-30T11:22:31.594Z,67.27
2018-03-30T11:23:31.589Z,68.33
2018-03-30T11:24:32.134Z,71.39
2018-03-30T11:25:31.938Z,70.34
2018-03-30T11:26:31.603Z,71.39
2018-03-30T11:27:31.838Z,70.62
2018-03-30T11:28:31.916Z,70.34
2018-03-30T11:29:31.557Z,70.43
2018-03-30T11:30:31.818Z,72.29
2018-03-30T11:31:31.810Z,70.03
2018-03-30T11:32:31.534Z,65.94
2018-03-30T11:33:31.809Z,65.11
2018-03-30T11:34:31.829Z,67.02
2018-03-30T11:35:31.866Z,66.58
2018-03-30T11:36:31.882Z,64.69
2018-03-30T11:37:31.830Z,64.15
2018-03-30T11:38:31.772Z,63.76
2018-03-30T11:39:31.800Z,66.3
2018-03-30T11:40:31.765Z,62.35
2018-03-30T11:41:31.499Z,62.07
2018-03-30T11:42:31.503Z,60.82
2018-03-30T11:43:31.769Z,60.21
2018-03-30T11:44:31.488Z,61.24
2018-03-30T11:45:31.511Z,65.11
2018-03-30T11:46:31.483Z,63.32
2018-03-30T11:47:31.826Z,62.07
2018-03-30T11:48:31.744Z,63.7
2018-03-30T11:49:31.476Z,63.89
2018-03-30T11:50:31.530Z,63.06
2018-03-30T11:51:31.737Z,62
2018-03-30T11:52:31.739Z,62.03
2018-03-30T11:53:31.835Z,63.09
2018-03-30T11:54:31.762Z,57.64
2018-03-30T11:55:31.733Z,57.13
2018-03-30T11:56:31.468Z,56.84
2018-03-30T11:57:31.764Z,58.09
2018-03-30T11:58:31.494Z,59.56
2018-03-30T11:59:31.736Z,55.93
2018-03-30T12:00:31.792Z,55.74
2018-03-30T12:01:31.739Z,55.87
2018-03-30T12:02:31.822Z,56.27
2018-03-30T12:03:31.485Z,57.17
2018-03-30T12:04:31.768Z,54.5
2018-03-30T12:05:31.756Z,56.01
2018-03-30T12:06:31.803Z,55.56
2018-03-30T12:07:31.974Z,54.24
2018-03-30T12:08:31.769Z,53.08
2018-03-30T12:09:31.987Z,51.65
2018-03-30T12:10:31.852Z,51.25
2018-03-30T12:11:31.771Z,49.41
2018-03-30T12:12:31.776Z,54.11
2018-03-30T12:13:31.780Z,54.02
2018-03-30T12:14:31.644Z,47.67
2018-03-30T12:15:31.794Z,50.11
2018-03-30T12:16:31.792Z,51.26
2018-03-30T12:17:31.796Z,52.3
2018-03-30T12:18:31.830Z,51.92
2018-03-30T12:19:31.536Z,50.93
2018-03-30T12:20:31.808Z,54.14
2018-03-30T12:21:31.546Z,57.15
2018-03-30T12:22:31.545Z,57.37
2018-03-30T12:23:31.557Z,53.91
2018-03-30T12:24:31.553Z,51.92
2018-03-30T12:25:31.559Z,53.05
2018-03-30T12:26:31.559Z,53.91
2018-03-30T12:27:31.830Z,52.4
2018-03-30T12:28:31.834Z,51.82
2018-03-30T12:29:31.610Z,51.72
2018-03-30T12:30:31.843Z,50.18
2018-03-30T12:31:31.575Z,50.71
2018-03-30T12:32:32.003Z,51.93
2018-03-30T12:33:31.851Z,52.99
2018-03-30T12:34:31.588Z,53.16
2018-03-30T12:35:31.849Z,53.25
2018-03-30T12:36:31.638Z,55.05
2018-03-30T12:37:31.590Z,54
2018-03-30T12:38:31.860Z,54.47
2018-03-30T12:39:31.606Z,54.31
2018-03-30T12:40:31.863Z,54.79
2018-03-30T12:41:31.597Z,53.76
2018-03-30T12:42:31.932Z,53.28
2018-03-30T12:43:31.965Z,54.12
2018-03-30T12:44:31.693Z,54.69
2018-03-30T12:45:31.667Z,54.53
2018-03-30T12:46:31.753Z,56.26
2018-03-30T12:47:31.999Z,54.08
2018-03-30T12:48:32.109Z,54.39
2018-03-30T12:49:32.076Z,56.22
2018-03-30T12:50:31.892Z,55
2018-03-30T12:51:31.888Z,56.35
2018-03-30T12:52:31.882Z,55.41
2018-03-30T12:53:31.617Z,51.65
2018-03-30T12:54:31.619Z,53.05